sensor_id;sensor_type;location;lat;lon;timestamp;pressure;altitude;pressure_sealevel;temperature;humidity
11268;BME280;49397;47.474;9.416;2022-07-21T00:01:45;95882.56;;;20.06;83.11
11268;BME280;49397;47.474;9.416;2022-07-21T00:04:10;95891.25;;;20.08;82.11
11268;BME280;49397;47.474;9.416;2022-07-21T00:06:36;95888.56;;;20.11;81.99
11268;BME280;49397;47.474;9.416;2022-07-21T00:09:02;95889.63;;;20.22;80.54
11268;BME280;49397;47.474;9.416;2022-07-21T00:11:27;95872.91;;;20.31;79.60
11268;BME280;49397;47.474;9.416;2022-07-21T00:13:53;95869.34;;;20.30;79.82
11268;BME280;49397;47.474;9.416;2022-07-21T00:16:18;95876.88;;;20.33;79.73
11268;BME280;49397;47.474;9.416;2022-07-21T00:18:44;95872.25;;;20.37;79.05
11268;BME280;49397;47.474;9.416;2022-07-21T00:21:09;95875.38;;;20.36;79.19
11268;BME280;49397;47.474;9.416;2022-07-21T00:23:35;95875.94;;;20.45;78.30
11268;BME280;49397;47.474;9.416;2022-07-21T00:26:00;95876.81;;;20.49;78.02
11268;BME280;49397;47.474;9.416;2022-07-21T00:28:26;95858.88;;;20.39;78.78
11268;BME280;49397;47.474;9.416;2022-07-21T00:30:51;95855.19;;;20.32;78.94
11268;BME280;49397;47.474;9.416;2022-07-21T00:33:17;95862.75;;;20.35;79.00
11268;BME280;49397;47.474;9.416;2022-07-21T00:35:42;95864.00;;;20.37;78.98
11268;BME280;49397;47.474;9.416;2022-07-21T00:38:08;95846.81;;;20.25;79.01
11268;BME280;49397;47.474;9.416;2022-07-21T00:40:33;95852.88;;;20.34;79.60
11268;BME280;49397;47.474;9.416;2022-07-21T00:42:59;95850.25;;;20.41;77.65
11268;BME280;49397;47.474;9.416;2022-07-21T00:45:24;95855.47;;;20.46;77.72
11268;BME280;49397;47.474;9.416;2022-07-21T00:47:50;95860.72;;;20.51;76.48
11268;BME280;49397;47.474;9.416;2022-07-21T00:50:18;95870.88;;;20.47;76.37
11268;BME280;49397;47.474;9.416;2022-07-21T00:52:44;95879.56;;;20.49;76.59
11268;BME280;49397;47.474;9.416;2022-07-21T00:55:12;95884.28;;;20.48;76.75
11268;BME280;49397;47.474;9.416;2022-07-21T00:57:39;95880.81;;;20.51;75.97
11268;BME280;49397;47.474;9.416;2022-07-21T01:00:08;95880.38;;;20.49;77.86
11268;BME280;49397;47.474;9.416;2022-07-21T01:02:34;95875.78;;;20.38;78.01
11268;BME280;49397;47.474;9.416;2022-07-21T01:05:08;95866.38;;;20.39;77.03
11268;BME280;49397;47.474;9.416;2022-07-21T01:07:45;95862.81;;;20.38;76.80
11268;BME280;49397;47.474;9.416;2022-07-21T01:10:12;95864.34;;;20.36;76.66
11268;BME280;49397;47.474;9.416;2022-07-21T01:12:39;95864.34;;;20.36;76.35
11268;BME280;49397;47.474;9.416;2022-07-21T01:15:06;95860.50;;;20.40;76.39
11268;BME280;49397;47.474;9.416;2022-07-21T01:17:32;95851.34;;;20.36;76.77
11268;BME280;49397;47.474;9.416;2022-07-21T01:20:03;95852.38;;;20.28;77.10
11268;BME280;49397;47.474;9.416;2022-07-21T01:22:29;95854.75;;;20.30;76.76
11268;BME280;49397;47.474;9.416;2022-07-21T01:24:56;95866.03;;;20.40;75.91
11268;BME280;49397;47.474;9.416;2022-07-21T01:27:26;95861.53;;;20.51;75.14
11268;BME280;49397;47.474;9.416;2022-07-21T01:29:53;95857.59;;;20.52;75.28
11268;BME280;49397;47.474;9.416;2022-07-21T01:32:18;95871.72;;;20.51;74.72
11268;BME280;49397;47.474;9.416;2022-07-21T01:34:44;95857.09;;;20.47;74.85
11268;BME280;49397;47.474;9.416;2022-07-21T01:37:10;95863.03;;;20.49;74.95
11268;BME280;49397;47.474;9.416;2022-07-21T01:39:35;95867.44;;;20.53;74.71
11268;BME280;49397;47.474;9.416;2022-07-21T01:42:19;95869.34;;;20.49;76.04
11268;BME280;49397;47.474;9.416;2022-07-21T01:44:45;95864.94;;;20.45;75.76
11268;BME280;49397;47.474;9.416;2022-07-21T01:47:10;95864.75;;;20.38;76.03
11268;BME280;49397;47.474;9.416;2022-07-21T01:49:36;95862.00;;;20.38;76.09
11268;BME280;49397;47.474;9.416;2022-07-21T01:52:01;95872.53;;;20.32;76.79
11268;BME280;49397;47.474;9.416;2022-07-21T01:54:27;95880.72;;;20.29;77.22
11268;BME280;49397;47.474;9.416;2022-07-21T01:56:52;95860.13;;;20.23;76.78
11268;BME280;49397;47.474;9.416;2022-07-21T01:59:19;95869.34;;;20.30;77.35
11268;BME280;49397;47.474;9.416;2022-07-21T02:01:44;95870.94;;;20.31;77.03
11268;BME280;49397;47.474;9.416;2022-07-21T02:04:10;95867.81;;;20.33;76.53
11268;BME280;49397;47.474;9.416;2022-07-21T02:06:36;95859.97;;;20.35;76.86
11268;BME280;49397;47.474;9.416;2022-07-21T02:09:02;95874.66;;;20.39;76.68
11268;BME280;49397;47.474;9.416;2022-07-21T02:11:28;95874.94;;;20.34;77.53
11268;BME280;49397;47.474;9.416;2022-07-21T02:13:54;95892.28;;;20.34;77.19
11268;BME280;49397;47.474;9.416;2022-07-21T02:16:20;95881.59;;;20.33;76.65
11268;BME280;49397;47.474;9.416;2022-07-21T02:18:45;95875.78;;;20.38;76.56
11268;BME280;49397;47.474;9.416;2022-07-21T02:21:11;95895.38;;;20.33;76.92
11268;BME280;49397;47.474;9.416;2022-07-21T02:23:37;95889.00;;;20.29;77.00
11268;BME280;49397;47.474;9.416;2022-07-21T02:26:03;95887.63;;;20.38;76.80
11268;BME280;49397;47.474;9.416;2022-07-21T02:28:28;95888.44;;;20.39;76.27
11268;BME280;49397;47.474;9.416;2022-07-21T02:30:54;95889.22;;;20.39;77.05
11268;BME280;49397;47.474;9.416;2022-07-21T02:33:20;95890.88;;;20.44;76.59
11268;BME280;49397;47.474;9.416;2022-07-21T02:35:46;95885.81;;;20.46;76.21
11268;BME280;49397;47.474;9.416;2022-07-21T02:38:12;95882.31;;;20.49;76.59
11268;BME280;49397;47.474;9.416;2022-07-21T02:40:38;95890.59;;;20.49;76.59
11268;BME280;49397;47.474;9.416;2022-07-21T02:43:05;95878.19;;;20.39;77.10
11268;BME280;49397;47.474;9.416;2022-07-21T02:45:31;95888.56;;;20.46;76.79
11268;BME280;49397;47.474;9.416;2022-07-21T02:48:03;95892.56;;;20.48;77.02
11268;BME280;49397;47.474;9.416;2022-07-21T02:50:31;95893.22;;;20.42;77.47
11268;BME280;49397;47.474;9.416;2022-07-21T02:52:59;95897.47;;;20.39;77.19
11268;BME280;49397;47.474;9.416;2022-07-21T02:55:25;95893.88;;;20.35;77.36
11268;BME280;49397;47.474;9.416;2022-07-21T03:00:49;95892.03;;;20.24;78.80
11268;BME280;49397;47.474;9.416;2022-07-21T03:03:15;95899.47;;;20.23;78.68
11268;BME280;49397;47.474;9.416;2022-07-21T03:05:40;95903.13;;;20.27;79.09
11268;BME280;49397;47.474;9.416;2022-07-21T03:08:07;95895.59;;;20.24;79.42
11268;BME280;49397;47.474;9.416;2022-07-21T03:10:33;95897.63;;;20.27;78.43
11268;BME280;49397;47.474;9.416;2022-07-21T03:12:59;95890.53;;;20.26;79.62
11268;BME280;49397;47.474;9.416;2022-07-21T03:15:25;95898.06;;;20.29;78.68
11268;BME280;49397;47.474;9.416;2022-07-21T03:17:52;95894.22;;;20.34;78.26
11268;BME280;49397;47.474;9.416;2022-07-21T03:20:18;95900.19;;;20.36;78.92
11268;BME280;49397;47.474;9.416;2022-07-21T03:22:43;95895.03;;;20.34;80.37
11268;BME280;49397;47.474;9.416;2022-07-21T03:25:09;95893.63;;;20.44;78.08
11268;BME280;49397;47.474;9.416;2022-07-21T03:27:35;95900.47;;;20.50;76.00
11268;BME280;49397;47.474;9.416;2022-07-21T03:30:04;95900.53;;;20.53;76.43
11268;BME280;49397;47.474;9.416;2022-07-21T03:32:29;95892.97;;;20.50;75.94
11268;BME280;49397;47.474;9.416;2022-07-21T03:34:55;95899.94;;;20.44;77.76
11268;BME280;49397;47.474;9.416;2022-07-21T03:37:20;95902.88;;;20.51;78.21
11268;BME280;49397;47.474;9.416;2022-07-21T03:39:46;95904.91;;;20.54;77.78
11268;BME280;49397;47.474;9.416;2022-07-21T03:42:11;95906.00;;;20.50;77.44
11268;BME280;49397;47.474;9.416;2022-07-21T03:44:37;95903.66;;;20.52;76.53
11268;BME280;49397;47.474;9.416;2022-07-21T03:47:02;95908.47;;;20.55;76.88
11268;BME280;49397;47.474;9.416;2022-07-21T03:49:28;95908.78;;;20.53;76.76
11268;BME280;49397;47.474;9.416;2022-07-21T03:51:54;95911.56;;;20.53;78.47
11268;BME280;49397;47.474;9.416;2022-07-21T03:54:19;95911.63;;;20.57;79.63
11268;BME280;49397;47.474;9.416;2022-07-21T03:56:45;95901.25;;;20.50;78.26
11268;BME280;49397;47.474;9.416;2022-07-21T03:59:10;95917.44;;;20.71;73.90
11268;BME280;49397;47.474;9.416;2022-07-21T04:01:36;95924.56;;;20.72;76.76
11268;BME280;49397;47.474;9.416;2022-07-21T04:04:01;95922.94;;;20.71;77.91
11268;BME280;49397;47.474;9.416;2022-07-21T04:06:26;95926.44;;;20.68;77.14
11268;BME280;49397;47.474;9.416;2022-07-21T04:08:52;95927.25;;;20.68;77.78
11268;BME280;49397;47.474;9.416;2022-07-21T04:11:17;95927.25;;;20.68;78.98
11268;BME280;49397;47.474;9.416;2022-07-21T04:13:43;95925.56;;;20.64;77.78
11268;BME280;49397;47.474;9.416;2022-07-21T04:16:08;95931.16;;;20.67;77.61
11268;BME280;49397;47.474;9.416;2022-07-21T04:18:34;95921.00;;;20.52;79.56
11268;BME280;49397;47.474;9.416;2022-07-21T04:20:59;95941.69;;;20.62;78.48
11268;BME280;49397;47.474;9.416;2022-07-21T04:23:25;95944.50;;;20.65;78.87
11268;BME280;49397;47.474;9.416;2022-07-21T04:25:50;95941.88;;;20.53;79.86
11268;BME280;49397;47.474;9.416;2022-07-21T04:28:16;95945.53;;;20.57;79.09
11268;BME280;49397;47.474;9.416;2022-07-21T04:30:41;95947.84;;;20.55;78.73
11268;BME280;49397;47.474;9.416;2022-07-21T04:33:07;95944.50;;;20.46;78.73
11268;BME280;49397;47.474;9.416;2022-07-21T04:35:32;95939.44;;;20.48;78.11
11268;BME280;49397;47.474;9.416;2022-07-21T04:37:58;95942.09;;;20.45;77.69
11268;BME280;49397;47.474;9.416;2022-07-21T04:40:23;95935.78;;;20.44;77.63
11268;BME280;49397;47.474;9.416;2022-07-21T04:42:49;95936.94;;;20.43;78.82
11268;BME280;49397;47.474;9.416;2022-07-21T04:45:15;95939.78;;;20.47;77.69
11268;BME280;49397;47.474;9.416;2022-07-21T04:47:50;95941.00;;;20.49;77.56
11268;BME280;49397;47.474;9.416;2022-07-21T04:50:18;95942.19;;;20.48;77.35
11268;BME280;49397;47.474;9.416;2022-07-21T04:52:44;95946.59;;;20.53;78.00
11268;BME280;49397;47.474;9.416;2022-07-21T04:55:11;95951.13;;;20.61;78.23
11268;BME280;49397;47.474;9.416;2022-07-21T04:57:42;95960.16;;;20.61;79.84
11268;BME280;49397;47.474;9.416;2022-07-21T05:00:10;95958.00;;;20.70;75.98
11268;BME280;49397;47.474;9.416;2022-07-21T05:02:36;95960.47;;;20.75;76.89
11268;BME280;49397;47.474;9.416;2022-07-21T05:05:02;95959.25;;;20.73;76.01
11268;BME280;49397;47.474;9.416;2022-07-21T05:07:28;95966.88;;;20.79;75.61
11268;BME280;49397;47.474;9.416;2022-07-21T05:09:54;95957.22;;;20.89;75.26
11268;BME280;49397;47.474;9.416;2022-07-21T05:12:19;95950.81;;;20.85;74.67
11268;BME280;49397;47.474;9.416;2022-07-21T05:14:45;95950.41;;;20.83;75.10
11268;BME280;49397;47.474;9.416;2022-07-21T05:17:10;95961.13;;;20.88;76.59
11268;BME280;49397;47.474;9.416;2022-07-21T05:19:35;95956.41;;;20.88;75.15
11268;BME280;49397;47.474;9.416;2022-07-21T05:22:01;95958.75;;;20.86;76.33
11268;BME280;49397;47.474;9.416;2022-07-21T05:24:27;95959.88;;;20.85;77.25
11268;BME280;49397;47.474;9.416;2022-07-21T05:26:52;95951.91;;;20.80;77.10
11268;BME280;49397;47.474;9.416;2022-07-21T05:29:17;95951.16;;;20.83;76.24
11268;BME280;49397;47.474;9.416;2022-07-21T05:31:43;95956.47;;;20.92;76.77
11268;BME280;49397;47.474;9.416;2022-07-21T05:34:10;95950.81;;;20.85;77.19
11268;BME280;49397;47.474;9.416;2022-07-21T05:36:35;95962.72;;;20.89;77.60
11268;BME280;49397;47.474;9.416;2022-07-21T05:39:01;95954.16;;;20.94;78.12
11268;BME280;49397;47.474;9.416;2022-07-21T05:41:26;95957.88;;;21.02;78.23
11268;BME280;49397;47.474;9.416;2022-07-21T05:43:52;95963.47;;;21.05;77.75
11268;BME280;49397;47.474;9.416;2022-07-21T05:46:17;95959.09;;;21.04;78.10
11268;BME280;49397;47.474;9.416;2022-07-21T05:48:42;95956.72;;;21.02;78.84
11268;BME280;49397;47.474;9.416;2022-07-21T05:53:33;95959.47;;;21.02;78.27
11268;BME280;49397;47.474;9.416;2022-07-21T05:58:24;95967.91;;;21.10;77.97
11268;BME280;49397;47.474;9.416;2022-07-21T06:00:51;95964.94;;;21.18;76.55
11268;BME280;49397;47.474;9.416;2022-07-21T06:03:37;95972.16;;;21.26;74.58
11268;BME280;49397;47.474;9.416;2022-07-21T06:06:03;95978.47;;;21.27;75.44
11268;BME280;49397;47.474;9.416;2022-07-21T06:08:29;95980.66;;;21.37;74.48
11268;BME280;49397;47.474;9.416;2022-07-21T06:10:55;95983.78;;;21.35;74.18
11268;BME280;49397;47.474;9.416;2022-07-21T06:13:20;95981.44;;;21.37;74.19
11268;BME280;49397;47.474;9.416;2022-07-21T06:15:46;95978.91;;;21.29;74.25
11268;BME280;49397;47.474;9.416;2022-07-21T06:18:11;95993.88;;;21.28;74.46
11268;BME280;49397;47.474;9.416;2022-07-21T06:20:37;95986.75;;;21.27;76.36
11268;BME280;49397;47.474;9.416;2022-07-21T06:23:02;95986.38;;;21.28;74.03
11268;BME280;49397;47.474;9.416;2022-07-21T06:25:28;95991.53;;;21.30;74.83
11268;BME280;49397;47.474;9.416;2022-07-21T06:27:53;95994.31;;;21.30;75.13
11268;BME280;49397;47.474;9.416;2022-07-21T06:30:19;95987.19;;;21.29;75.91
11268;BME280;49397;47.474;9.416;2022-07-21T06:32:45;95989.28;;;21.35;75.67
11268;BME280;49397;47.474;9.416;2022-07-21T06:35:10;95986.84;;;21.30;76.08
11268;BME280;49397;47.474;9.416;2022-07-21T06:37:36;95991.69;;;21.37;74.22
11268;BME280;49397;47.474;9.416;2022-07-21T06:40:03;95990.16;;;21.39;74.02
11268;BME280;49397;47.474;9.416;2022-07-21T06:42:29;95988.59;;;22.32;68.53
11268;BME280;49397;47.474;9.416;2022-07-21T06:44:54;95978.13;;;23.00;66.58
11268;BME280;49397;47.474;9.416;2022-07-21T06:47:20;95990.28;;;22.63;67.45
11268;BME280;49397;47.474;9.416;2022-07-21T06:49:46;95988.56;;;22.28;68.89
11268;BME280;49397;47.474;9.416;2022-07-21T06:52:11;95985.09;;;22.09;69.95
11268;BME280;49397;47.474;9.416;2022-07-21T06:54:37;95980.94;;;21.96;69.18
11268;BME280;49397;47.474;9.416;2022-07-21T06:57:02;95986.06;;;21.97;69.96
11268;BME280;49397;47.474;9.416;2022-07-21T06:59:28;95981.19;;;21.87;68.97
11268;BME280;49397;47.474;9.416;2022-07-21T07:01:53;95993.91;;;21.92;69.73
11268;BME280;49397;47.474;9.416;2022-07-21T07:04:19;95996.34;;;21.97;69.55
11268;BME280;49397;47.474;9.416;2022-07-21T07:06:47;96011.00;;;21.78;69.44
11268;BME280;49397;47.474;9.416;2022-07-21T07:09:17;96010.59;;;21.76;68.51
11268;BME280;49397;47.474;9.416;2022-07-21T07:11:42;96003.31;;;21.68;68.55
11268;BME280;49397;47.474;9.416;2022-07-21T07:14:08;96016.91;;;21.77;69.26
11268;BME280;49397;47.474;9.416;2022-07-21T07:16:33;96013.69;;;21.75;67.28
11268;BME280;49397;47.474;9.416;2022-07-21T07:18:59;96007.38;;;21.74;67.92
11268;BME280;49397;47.474;9.416;2022-07-21T07:21:24;96011.81;;;21.79;67.72
11268;BME280;49397;47.474;9.416;2022-07-21T07:23:50;96018.53;;;21.78;68.66
11268;BME280;49397;47.474;9.416;2022-07-21T07:26:15;96025.69;;;21.82;68.72
11268;BME280;49397;47.474;9.416;2022-07-21T07:28:41;96020.59;;;21.84;68.21
11268;BME280;49397;47.474;9.416;2022-07-21T07:31:06;96027.50;;;21.75;68.29
11268;BME280;49397;47.474;9.416;2022-07-21T07:33:32;96028.75;;;21.77;69.33
11268;BME280;49397;47.474;9.416;2022-07-21T07:35:57;96028.19;;;21.68;69.63
11268;BME280;49397;47.474;9.416;2022-07-21T07:38:23;96029.47;;;21.74;70.62
11268;BME280;49397;47.474;9.416;2022-07-21T07:40:49;96031.69;;;21.65;70.18
11268;BME280;49397;47.474;9.416;2022-07-21T07:43:14;96028.75;;;21.58;69.79
11268;BME280;49397;47.474;9.416;2022-07-21T07:45:40;96029.28;;;21.64;69.66
11268;BME280;49397;47.474;9.416;2022-07-21T07:48:06;96030.78;;;21.80;70.04
11268;BME280;49397;47.474;9.416;2022-07-21T07:50:31;96029.84;;;21.73;71.06
11268;BME280;49397;47.474;9.416;2022-07-21T07:52:57;96024.06;;;21.59;68.57
11268;BME280;49397;47.474;9.416;2022-07-21T07:55:23;96024.41;;;21.57;69.71
11268;BME280;49397;47.474;9.416;2022-07-21T07:57:48;96020.66;;;21.69;68.54
11268;BME280;49397;47.474;9.416;2022-07-21T08:00:16;96019.97;;;21.72;67.22
11268;BME280;49397;47.474;9.416;2022-07-21T08:02:42;96018.53;;;21.78;68.93
11268;BME280;49397;47.474;9.416;2022-07-21T08:05:08;96015.38;;;21.79;69.17
11268;BME280;49397;47.474;9.416;2022-07-21T08:07:38;96027.19;;;21.76;69.33
11268;BME280;49397;47.474;9.416;2022-07-21T08:10:10;96028.31;;;21.75;67.75
11268;BME280;49397;47.474;9.416;2022-07-21T08:12:37;96028.09;;;21.84;68.12
11268;BME280;49397;47.474;9.416;2022-07-21T08:15:04;96029.25;;;21.83;69.55
11268;BME280;49397;47.474;9.416;2022-07-21T08:17:30;96038.69;;;21.82;69.63
11268;BME280;49397;47.474;9.416;2022-07-21T08:19:56;96029.97;;;21.80;69.17
11268;BME280;49397;47.474;9.416;2022-07-21T08:22:21;96025.63;;;21.79;68.39
11268;BME280;49397;47.474;9.416;2022-07-21T08:24:47;96034.34;;;21.81;68.20
11268;BME280;49397;47.474;9.416;2022-07-21T08:27:12;96030.34;;;21.78;68.52
11268;BME280;49397;47.474;9.416;2022-07-21T08:29:38;96040.69;;;21.81;68.17
11268;BME280;49397;47.474;9.416;2022-07-21T08:32:04;96039.44;;;21.79;68.05
11268;BME280;49397;47.474;9.416;2022-07-21T08:34:29;96039.50;;;21.82;67.98
11268;BME280;49397;47.474;9.416;2022-07-21T08:36:57;96040.31;;;21.83;67.67
11268;BME280;49397;47.474;9.416;2022-07-21T08:39:22;96034.53;;;21.91;67.00
11268;BME280;49397;47.474;9.416;2022-07-21T08:41:49;96039.25;;;21.91;66.69
11268;BME280;49397;47.474;9.416;2022-07-21T08:44:16;96046.13;;;22.00;65.61
11268;BME280;49397;47.474;9.416;2022-07-21T08:46:42;96049.41;;;22.06;65.87
11268;BME280;49397;47.474;9.416;2022-07-21T08:49:11;96048.09;;;22.00;65.72
11268;BME280;49397;47.474;9.416;2022-07-21T08:51:37;96045.97;;;22.12;65.17
11268;BME280;49397;47.474;9.416;2022-07-21T08:54:03;96044.00;;;22.13;66.67
11268;BME280;49397;47.474;9.416;2022-07-21T08:56:29;96046.94;;;22.23;65.68
11268;BME280;49397;47.474;9.416;2022-07-21T08:58:55;96042.84;;;22.40;66.70
11268;BME280;49397;47.474;9.416;2022-07-21T09:01:21;96039.38;;;22.46;66.80
11268;BME280;49397;47.474;9.416;2022-07-21T09:03:51;96044.38;;;22.60;66.13
11268;BME280;49397;47.474;9.416;2022-07-21T09:06:17;96039.53;;;22.54;64.53
11268;BME280;49397;47.474;9.416;2022-07-21T09:08:48;96050.66;;;22.57;64.62
11268;BME280;49397;47.474;9.416;2022-07-21T09:13:46;96045.19;;;22.38;64.48
11268;BME280;49397;47.474;9.416;2022-07-21T09:16:12;96053.16;;;22.43;66.25
11268;BME280;49397;47.474;9.416;2022-07-21T09:18:50;96037.38;;;22.43;64.93
11268;BME280;49397;47.474;9.416;2022-07-21T09:21:19;96037.94;;;22.53;65.27
11268;BME280;49397;47.474;9.416;2022-07-21T09:23:45;96049.59;;;22.65;65.21
11268;BME280;49397;47.474;9.416;2022-07-21T09:26:11;96043.56;;;22.60;65.21
11268;BME280;49397;47.474;9.416;2022-07-21T09:28:36;96045.16;;;22.61;65.11
11268;BME280;49397;47.474;9.416;2022-07-21T09:31:05;96047.91;;;22.57;65.00
11268;BME280;49397;47.474;9.416;2022-07-21T09:33:51;96047.16;;;22.60;65.39
11268;BME280;49397;47.474;9.416;2022-07-21T09:36:18;96049.41;;;22.55;65.08
11268;BME280;49397;47.474;9.416;2022-07-21T09:43:38;96032.13;;;22.87;63.83
11268;BME280;49397;47.474;9.416;2022-07-21T09:46:13;96038.81;;;22.86;63.75
11268;BME280;49397;47.474;9.416;2022-07-21T09:48:40;96037.66;;;22.87;62.40
11268;BME280;49397;47.474;9.416;2022-07-21T09:51:26;96027.81;;;22.90;61.68
11268;BME280;49397;47.474;9.416;2022-07-21T09:56:25;96019.19;;;22.95;61.27
11268;BME280;49397;47.474;9.416;2022-07-21T09:58:53;96020.56;;;23.11;60.08
11268;BME280;49397;47.474;9.416;2022-07-21T10:01:20;96017.47;;;23.16;60.34
11268;BME280;49397;47.474;9.416;2022-07-21T10:03:48;96013.28;;;23.26;61.95
11268;BME280;49397;47.474;9.416;2022-07-21T10:06:16;96014.50;;;23.28;60.07
11268;BME280;49397;47.474;9.416;2022-07-21T10:08:43;96010.31;;;23.45;60.65
11268;BME280;49397;47.474;9.416;2022-07-21T10:11:10;96011.72;;;23.61;61.70
11268;BME280;49397;47.474;9.416;2022-07-21T10:13:37;96014.09;;;23.63;60.22
11268;BME280;49397;47.474;9.416;2022-07-21T10:16:04;95998.09;;;23.16;61.19
11268;BME280;49397;47.474;9.416;2022-07-21T10:18:36;96019.34;;;23.38;62.26
11268;BME280;49397;47.474;9.416;2022-07-21T10:23:56;96000.63;;;23.61;59.13
11268;BME280;49397;47.474;9.416;2022-07-21T10:26:22;96010.28;;;23.78;59.03
11268;BME280;49397;47.474;9.416;2022-07-21T10:28:50;96011.38;;;24.07;60.34
11268;BME280;49397;47.474;9.416;2022-07-21T10:31:19;96012.72;;;24.23;59.41
11268;BME280;49397;47.474;9.416;2022-07-21T10:36:38;96014.81;;;24.98;58.41
11268;BME280;49397;47.474;9.416;2022-07-21T10:41:44;96008.88;;;24.99;57.24
11268;BME280;49397;47.474;9.416;2022-07-21T10:47:19;96003.41;;;25.17;58.80
11268;BME280;49397;47.474;9.416;2022-07-21T10:49:58;96006.78;;;25.65;57.15
11268;BME280;49397;47.474;9.416;2022-07-21T10:57:37;95998.94;;;26.33;53.80
11268;BME280;49397;47.474;9.416;2022-07-21T11:00:36;95989.38;;;26.55;53.58
11268;BME280;49397;47.474;9.416;2022-07-21T11:03:03;95993.38;;;26.23;53.01
11268;BME280;49397;47.474;9.416;2022-07-21T11:05:33;95992.09;;;25.61;54.70
11268;BME280;49397;47.474;9.416;2022-07-21T11:08:18;95994.69;;;25.22;54.53
11268;BME280;49397;47.474;9.416;2022-07-21T11:10:51;95985.28;;;25.48;55.69
11268;BME280;49397;47.474;9.416;2022-07-21T11:13:20;95986.88;;;25.52;56.19
11268;BME280;49397;47.474;9.416;2022-07-21T11:15:56;95985.75;;;25.74;54.35
11268;BME280;49397;47.474;9.416;2022-07-21T11:18:28;95984.59;;;25.86;54.09
11268;BME280;49397;47.474;9.416;2022-07-21T11:21:07;95983.78;;;25.92;54.71
11268;BME280;49397;47.474;9.416;2022-07-21T11:23:35;95980.25;;;26.06;54.62
11268;BME280;49397;47.474;9.416;2022-07-21T11:26:01;95981.44;;;26.33;55.79
11268;BME280;49397;47.474;9.416;2022-07-21T11:28:26;95974.66;;;26.58;52.54
11268;BME280;49397;47.474;9.416;2022-07-21T11:31:14;95971.84;;;26.80;52.09
11268;BME280;49397;47.474;9.416;2022-07-21T11:33:42;95968.53;;;27.20;52.20
11268;BME280;49397;47.474;9.416;2022-07-21T11:36:08;95960.75;;;27.66;52.19
11268;BME280;49397;47.474;9.416;2022-07-21T11:38:34;95958.97;;;27.96;51.51
11268;BME280;49397;47.474;9.416;2022-07-21T11:41:13;95958.91;;;27.35;51.19
11268;BME280;49397;47.474;9.416;2022-07-21T11:43:43;95952.41;;;27.66;51.78
11268;BME280;49397;47.474;9.416;2022-07-21T11:46:09;95947.72;;;28.10;50.48
11268;BME280;49397;47.474;9.416;2022-07-21T11:48:35;95947.38;;;28.01;49.21
11268;BME280;49397;47.474;9.416;2022-07-21T11:51:02;95942.09;;;28.58;49.98
11268;BME280;49397;47.474;9.416;2022-07-21T11:53:28;95941.59;;;29.07;48.38
11268;BME280;49397;47.474;9.416;2022-07-21T11:55:54;95932.00;;;28.71;47.83
11268;BME280;49397;47.474;9.416;2022-07-21T11:58:20;95938.19;;;28.52;48.87
11268;BME280;49397;47.474;9.416;2022-07-21T12:00:46;95938.13;;;28.93;48.57
11268;BME280;49397;47.474;9.416;2022-07-21T12:03:12;95937.97;;;29.71;47.53
11268;BME280;49397;47.474;9.416;2022-07-21T12:05:39;95930.09;;;28.98;47.48
11268;BME280;49397;47.474;9.416;2022-07-21T12:08:05;95933.50;;;28.79;49.74
11268;BME280;49397;47.474;9.416;2022-07-21T12:10:32;95930.22;;;28.51;48.53
11268;BME280;49397;47.474;9.416;2022-07-21T12:13:00;95926.94;;;27.57;51.58
11268;BME280;49397;47.474;9.416;2022-07-21T12:15:31;95930.91;;;28.17;51.36
11268;BME280;49397;47.474;9.416;2022-07-21T12:20:34;95931.53;;;27.84;51.39
11268;BME280;49397;47.474;9.416;2022-07-21T12:23:02;95924.59;;;28.58;50.48
11268;BME280;49397;47.474;9.416;2022-07-21T12:25:33;95918.88;;;28.28;50.16
11268;BME280;49397;47.474;9.416;2022-07-21T12:27:59;95928.56;;;28.57;50.32
11268;BME280;49397;47.474;9.416;2022-07-21T12:30:34;95923.78;;;28.94;48.28
11268;BME280;49397;47.474;9.416;2022-07-21T12:33:06;95917.91;;;29.19;48.09
11268;BME280;49397;47.474;9.416;2022-07-21T12:35:31;95914.66;;;29.24;47.94
11268;BME280;49397;47.474;9.416;2022-07-21T12:38:00;95914.41;;;29.72;46.73
11268;BME280;49397;47.474;9.416;2022-07-21T12:40:28;95913.81;;;30.07;45.74
11268;BME280;49397;47.474;9.416;2022-07-21T12:43:11;95924.88;;;29.64;46.75
11268;BME280;49397;47.474;9.416;2022-07-21T12:48:36;95910.38;;;28.38;48.83
11268;BME280;49397;47.474;9.416;2022-07-21T12:51:20;95915.44;;;28.91;49.01
11268;BME280;49397;47.474;9.416;2022-07-21T12:53:48;95914.47;;;29.04;47.01
11268;BME280;49397;47.474;9.416;2022-07-21T12:56:17;95910.22;;;29.53;47.16
11268;BME280;49397;47.474;9.416;2022-07-21T12:58:43;95905.34;;;29.00;46.67
11268;BME280;49397;47.474;9.416;2022-07-21T13:01:10;95904.13;;;29.01;47.87
11268;BME280;49397;47.474;9.416;2022-07-21T13:03:36;95903.66;;;29.40;47.71
11268;BME280;49397;47.474;9.416;2022-07-21T13:06:04;95903.22;;;29.41;47.03
11268;BME280;49397;47.474;9.416;2022-07-21T13:08:31;95900.78;;;29.43;47.11
11268;BME280;49397;47.474;9.416;2022-07-21T13:10:56;95897.88;;;29.24;45.77
11268;BME280;49397;47.474;9.416;2022-07-21T13:13:22;95885.00;;;29.30;47.81
11268;BME280;49397;47.474;9.416;2022-07-21T13:15:48;95888.72;;;29.50;47.95
11268;BME280;49397;47.474;9.416;2022-07-21T13:18:13;95886.94;;;29.90;44.70
11268;BME280;49397;47.474;9.416;2022-07-21T13:20:39;95891.94;;;29.75;44.92
11268;BME280;49397;47.474;9.416;2022-07-21T13:23:05;95888.09;;;29.66;46.11
11268;BME280;49397;47.474;9.416;2022-07-21T13:25:30;95880.59;;;29.59;46.37
11268;BME280;49397;47.474;9.416;2022-07-21T13:27:56;95888.59;;;29.00;46.53
11268;BME280;49397;47.474;9.416;2022-07-21T13:30:22;95877.44;;;29.30;46.01
11268;BME280;49397;47.474;9.416;2022-07-21T13:32:47;95882.00;;;29.17;46.66
11268;BME280;49397;47.474;9.416;2022-07-21T13:35:14;95877.44;;;29.30;46.51
11268;BME280;49397;47.474;9.416;2022-07-21T13:37:40;95878.72;;;29.79;45.31
11268;BME280;49397;47.474;9.416;2022-07-21T13:40:06;95865.81;;;29.32;45.77